Time;durP1;ratioP1;P1;durP2;ratioP2;P2;SDS_P1;SDS_P2;PMS_P1;PMS_P2;Temp;Humidity;BMP_temperature;BMP_pressure;BME280_temperature;BME280_humidity;BME280_pressure;Samples;Min_cycle;Max_cycle;Signal;HPM_P1;HPM_P2
2023/11/21 00:00:26;;;;;;;91.90;65.20;;;;;;;9.22;100.00;99576.98;110062;1265;23007;-78
2023/11/21 00:03:28;;;;;;;97.70;68.60;;;;;;;9.18;100.00;99582.52;109589;1273;23024;-78
2023/11/21 00:06:09;;;;;;;94.50;69.60;;;;;;;9.16;100.00;99585.03;109588;1273;21982;-77
2023/11/21 00:08:39;;;;;;;101.70;69.70;;;;;;;9.15;100.00;99583.68;108977;1276;21993;-78
2023/11/21 00:11:14;;;;;;;102.40;70.10;;;;;;;9.14;100.00;99591.04;108989;1277;23773;-78
2023/11/21 00:13:46;;;;;;;88.80;63.20;;;;;;;9.12;100.00;99594.58;109122;1276;21989;-80
2023/11/21 00:16:29;;;;;;;95.30;63.40;;;;;;;9.10;100.00;99597.30;109040;1276;22919;-78
2023/11/21 00:19:11;;;;;;;81.90;62.50;;;;;;;9.08;100.00;99597.21;109307;1273;23059;-80
2023/11/21 00:21:54;;;;;;;88.10;62.10;;;;;;;9.05;100.00;99593.67;109577;1271;22052;-79
2023/11/21 00:24:37;;;;;;;97.10;64.10;;;;;;;9.03;100.00;99595.33;109405;1266;23716;-78
2023/11/21 00:27:11;;;;;;;101.00;63.50;;;;;;;9.01;100.00;99594.39;109891;1269;23035;-82
2023/11/21 00:29:54;;;;;;;84.20;62.60;;;;;;;9.00;100.00;99598.23;109966;1269;24499;-79
2023/11/21 00:32:27;;;;;;;79.70;59.90;;;;;;;9.02;100.00;99604.94;109465;1274;21997;-80
2023/11/21 00:35:05;;;;;;;79.70;60.50;;;;;;;9.04;100.00;99607.95;109541;1274;21992;-79
2023/11/21 00:37:44;;;;;;;86.40;59.60;;;;;;;9.05;100.00;99609.13;108889;1278;25059;-77
2023/11/21 00:40:20;;;;;;;91.80;63.50;;;;;;;9.07;100.00;99610.63;108683;1279;24410;-79
2023/11/21 00:43:03;;;;;;;86.90;60.90;;;;;;;9.06;100.00;99609.42;108921;1279;23725;-77
2023/11/21 00:45:40;;;;;;;96.40;60.10;;;;;;;9.06;100.00;99608.76;108885;1277;21981;-78
2023/11/21 00:48:13;;;;;;;73.20;57.90;;;;;;;9.06;100.00;99608.58;109015;1277;22049;-79
2023/11/21 00:50:54;;;;;;;83.70;60.00;;;;;;;9.04;100.00;99608.31;108989;1277;22841;-78
2023/11/21 00:53:29;;;;;;;87.30;62.40;;;;;;;9.02;100.00;99614.15;108831;1277;22183;-76
2023/11/21 00:56:02;;;;;;;80.40;57.20;;;;;;;8.99;100.00;99614.78;108911;1277;22446;-81
2023/11/21 00:58:35;;;;;;;64.80;50.70;;;;;;;8.93;100.00;99617.48;109215;1270;21947;-83
2023/11/21 01:01:16;;;;;;;56.60;44.30;;;;;;;8.85;100.00;99614.84;109068;1276;24319;-75
2023/11/21 01:03:58;;;;;;;58.30;44.20;;;;;;;8.74;100.00;99612.02;109039;1275;23750;-79
2023/11/21 01:06:30;;;;;;;56.20;43.90;;;;;;;8.65;100.00;99612.38;108984;1276;22143;-78
2023/11/21 01:09:12;;;;;;;61.00;44.00;;;;;;;8.58;100.00;99613.19;109262;1270;23024;-79
2023/11/21 01:11:47;;;;;;;61.30;44.20;;;;;;;8.52;100.00;99609.99;109245;1274;21973;-79
2023/11/21 01:14:17;;;;;;;61.00;45.00;;;;;;;8.47;100.00;99611.20;109225;1258;23052;-78
2023/11/21 01:16:54;;;;;;;58.30;47.00;;;;;;;8.47;100.00;99612.79;109449;1271;23717;-79
2023/11/21 01:19:26;;;;;;;62.00;47.60;;;;;;;8.46;100.00;99615.42;109762;1266;24887;-79
2023/11/21 01:22:05;;;;;;;64.10;46.40;;;;;;;8.47;100.00;99616.96;110182;1266;21984;-78
2023/11/21 01:24:46;;;;;;;68.60;48.90;;;;;;;8.46;100.00;99621.16;109408;1271;21980;-79
2023/11/21 01:27:19;;;;;;;58.90;47.10;;;;;;;8.42;100.00;99620.96;109668;1270;23602;-79
2023/11/21 01:29:56;;;;;;;60.90;46.00;;;;;;;8.36;100.00;99622.02;109767;1268;21976;-79
2023/11/21 01:32:31;;;;;;;57.20;42.90;;;;;;;8.35;100.00;99620.36;110115;1264;23783;-78
2023/11/21 01:35:09;;;;;;;62.40;45.90;;;;;;;8.28;100.00;99625.30;110397;1264;23594;-78
2023/11/21 01:37:48;;;;;;;61.30;45.90;;;;;;;8.25;100.00;99626.46;110153;1268;22530;-80
2023/11/21 01:40:22;;;;;;;65.80;48.60;;;;;;;8.23;100.00;99626.72;109946;1268;22450;-79
2023/11/21 01:42:58;;;;;;;67.80;48.20;;;;;;;8.21;100.00;99628.17;110317;1264;21970;-79
2023/11/21 01:45:30;;;;;;;74.90;49.10;;;;;;;8.21;100.00;99626.42;109718;1270;21981;-78
2023/11/21 01:48:03;;;;;;;65.60;47.80;;;;;;;8.20;100.00;99631.48;109726;1270;23727;-79
2023/11/21 01:50:39;;;;;;;60.90;46.90;;;;;;;8.17;100.00;99634.23;109947;1270;22012;-79
2023/11/21 01:53:16;;;;;;;63.10;46.70;;;;;;;8.13;100.00;99633.86;109088;1274;22457;-79
2023/11/21 01:55:49;;;;;;;56.10;42.00;;;;;;;8.09;100.00;99633.66;109241;1271;21986;-78
2023/11/21 01:58:28;;;;;;;55.10;44.20;;;;;;;8.08;100.00;99632.68;109489;1267;22023;-79
2023/11/21 02:01:03;;;;;;;59.90;43.20;;;;;;;8.06;100.00;99631.89;109630;1271;23705;-78
2023/11/21 02:03:33;;;;;;;58.00;43.90;;;;;;;8.04;100.00;99631.77;109675;1265;21971;-78
2023/11/21 02:06:12;;;;;;;53.10;40.10;;;;;;;7.99;100.00;99627.63;110282;1261;23035;-79
2023/11/21 02:08:50;;;;;;;60.10;41.70;;;;;;;7.95;100.00;99631.95;110161;1265;22051;-78
2023/11/21 02:11:32;;;;;;;54.80;41.90;;;;;;;7.91;100.00;99634.05;110624;1259;21978;-78
2023/11/21 02:14:09;;;;;;;53.80;40.70;;;;;;;7.85;100.00;99633.55;110655;1259;23603;-77
2023/11/21 02:16:53;;;;;;;52.20;41.20;;;;;;;7.82;100.00;99632.98;110284;1265;22296;-78
2023/11/21 02:19:34;;;;;;;46.20;37.80;;;;;;;7.76;100.00;99636.48;110083;1265;21980;-77
2023/11/21 02:22:10;;;;;;;42.20;34.70;;;;;;;7.65;100.00;99635.33;109700;1271;22107;-78
2023/11/21 02:24:48;;;;;;;42.00;34.10;;;;;;;7.58;100.00;99637.52;109134;1276;22016;-80
2023/11/21 02:27:27;;;;;;;35.00;30.10;;;;;;;7.51;100.00;99634.63;109107;1276;22003;-79
2023/11/21 02:30:13;;;;;;;40.80;33.60;;;;;;;7.48;100.00;99638.74;109251;1276;22008;-80
2023/11/21 02:33:01;;;;;;;40.80;33.50;;;;;;;7.46;100.00;99642.46;109310;1276;22025;-80
2023/11/21 02:35:35;;;;;;;37.20;32.10;;;;;;;7.45;100.00;99645.23;109478;1271;21985;-78
2023/11/21 02:38:15;;;;;;;43.70;32.80;;;;;;;7.46;100.00;99653.70;109262;1277;23108;-81
2023/11/21 02:40:59;;;;;;;43.60;34.50;;;;;;;7.46;100.00;99654.92;109281;1271;22004;-79
2023/11/21 02:43:33;;;;;;;45.60;40.00;;;;;;;7.46;100.00;99659.24;109955;1266;21972;-81
2023/11/21 02:46:18;;;;;;;50.40;37.90;;;;;;;7.44;100.00;99662.77;110185;1253;23024;-80
2023/11/21 02:49:03;;;;;;;39.40;33.60;;;;;;;7.40;100.00;99661.33;110392;1266;24389;-79
2023/11/21 02:51:44;;;;;;;43.60;34.20;;;;;;;7.30;100.00;99665.34;110183;1266;21996;-80
2023/11/21 02:54:42;;;;;;;38.90;32.80;;;;;;;7.14;100.00;99663.82;110285;1267;22976;-81
2023/11/21 02:57:13;;;;;;;36.30;29.80;;;;;;;7.08;100.00;99662.63;110843;1260;22026;-81
2023/11/21 02:59:53;;;;;;;33.40;28.80;;;;;;;7.01;100.00;99664.06;110747;1265;22471;-82
2023/11/21 03:02:26;;;;;;;33.60;28.70;;;;;;;6.92;100.00;99661.79;110376;1264;21970;-81
2023/11/21 03:04:59;;;;;;;32.10;28.40;;;;;;;6.84;100.00;99663.30;110422;1267;21973;-82
2023/11/21 03:07:52;;;;;;;34.50;29.40;;;;;;;6.77;100.00;99667.30;110400;1267;23696;-81
2023/11/21 03:10:32;;;;;;;35.10;29.20;;;;;;;6.72;100.00;99669.05;110190;1267;22010;-82
2023/11/21 03:13:02;;;;;;;33.90;28.90;;;;;;;6.67;100.00;99670.23;110390;1267;21982;-80
2023/11/21 03:15:37;;;;;;;37.00;31.70;;;;;;;6.62;100.00;99672.48;110201;1267;22141;-80
2023/11/21 03:18:25;;;;;;;37.90;33.90;;;;;;;6.57;100.00;99674.02;110346;1263;21999;-81
2023/11/21 03:21:10;;;;;;;;;;;;;;;;;;;;;
2023/11/21 03:23:48;;;;;;;36.60;32.30;;;;;;;6.43;100.00;99683.98;110917;1260;21979;-80
2023/11/21 03:26:24;;;;;;;33.20;29.40;;;;;;;6.33;100.00;99689.27;110935;1260;22429;-81
2023/11/21 03:28:59;;;;;;;38.40;29.90;;;;;;;6.24;100.00;99692.84;110955;1260;23733;-80
2023/11/21 03:31:36;;;;;;;34.30;30.30;;;;;;;6.17;100.00;99693.05;111115;1260;21967;-82
2023/11/21 03:34:30;;;;;;;35.60;31.70;;;;;;;6.13;100.00;99693.86;111022;1260;21983;-80
2023/11/21 03:37:18;;;;;;;35.30;31.20;;;;;;;6.09;100.00;99697.10;110913;1260;22666;-81
2023/11/21 03:40:08;;;;;;;35.30;31.20;;;;;;;6.05;100.00;99701.54;111017;1260;22922;-80
2023/11/21 03:42:51;;;;;;;35.90;31.60;;;;;;;6.01;100.00;99701.98;111012;1260;21970;-80
2023/11/21 03:45:23;;;;;;;36.20;32.30;;;;;;;5.98;100.00;99703.64;110461;1265;21956;-82
2023/11/21 03:47:59;;;;;;;38.80;34.40;;;;;;;5.95;100.00;99704.92;110164;1266;23724;-79
2023/11/21 03:50:33;;;;;;;36.10;31.80;;;;;;;5.93;100.00;99701.02;109976;1270;22015;-82
2023/11/21 03:53:14;;;;;;;37.10;33.10;;;;;;;5.93;100.00;99699.63;109506;1274;21999;-79
2023/11/21 03:55:46;;;;;;;39.30;35.00;;;;;;;5.92;100.00;99699.30;109523;1274;22001;-80
2023/11/21 03:58:26;;;;;;;42.30;34.30;;;;;;;5.88;100.00;99702.02;109112;1280;21988;-81
2023/11/21 04:01:06;;;;;;;39.70;33.50;;;;;;;5.82;100.00;99705.27;108989;1280;22014;-82
2023/11/21 04:03:54;;;;;;;40.50;36.00;;;;;;;5.78;100.00;99704.34;108990;1277;23615;-82
2023/11/21 04:06:40;;;;;;;38.80;34.00;;;;;;;5.75;100.00;99713.23;109238;1277;22029;-81
2023/11/21 04:09:29;;;;;;;38.50;34.20;;;;;;;5.70;100.00;99712.87;109388;1273;22016;-81
2023/11/21 04:12:18;;;;;;;41.20;33.50;;;;;;;5.67;100.00;99713.48;109855;1268;23021;-84
2023/11/21 04:15:42;;;;;;;39.00;34.90;;;;;;;5.61;100.00;99714.50;109781;1270;23049;-84
2023/11/21 04:18:44;;;;;;;39.40;33.00;;;;;;;5.53;100.00;99712.80;110718;1263;23609;-83
2023/11/21 04:21:30;;;;;;;39.40;35.20;;;;;;;5.53;100.00;99716.10;110547;1263;24337;-81
2023/11/21 04:24:07;;;;;;;;;;;;;;;5.49;100.00;99711.20;110463;1263;23028;-85
2023/11/21 04:27:05;;;;;;;33.40;29.90;;;;;;;5.41;100.00;99717.27;110641;1264;22002;-87
2023/11/21 04:29:57;;;;;;;32.50;28.40;;;;;;;5.34;100.00;99723.33;110084;1265;21996;-87
2023/11/21 04:33:48;;;;;;;;;;;;;;;;;;;;;
2023/11/21 04:37:51;;;;;;;;;;;;;;;;;;;;;
2023/11/21 04:40:38;;;;;;;36.80;31.90;;;;;;;5.22;100.00;99744.69;109445;1276;23850;-86
2023/11/21 04:44:12;;;;;;;35.80;30.50;;;;;;;5.21;100.00;99747.82;108903;1283;22058;-84
2023/11/21 04:47:29;;;;;;;33.00;29.30;;;;;;;5.20;100.00;99750.25;108706;1277;22011;-87
2023/11/21 04:50:52;;;;;;;31.20;27.60;;;;;;;5.15;100.00;99752.10;108784;1284;24325;-82
2023/11/21 04:54:58;;;;;;;;;;;;;;;;;;;;;
2023/11/21 04:58:38;;;;;;;32.00;27.40;;;;;;;5.03;100.00;99746.37;108762;1287;22004;-87
2023/11/21 05:15:12;;;;;;;25.10;20.80;;;;;;;4.65;100.00;99776.20;108682;1289;22046;-89
2023/11/21 05:18:50;;;;;;;;;;;;;;;;;;;;;
2023/11/21 05:21:50;;;;;;;26.50;23.50;;;;;;;4.43;100.00;99779.64;109076;1282;24982;-83
2023/11/21 05:28:26;;;;;;;30.20;26.60;;;;;;;4.37;100.00;99786.15;108881;1284;22046;-84
2023/11/21 05:31:44;;;;;;;;;;;;;;;;;;;;;
2023/11/21 05:34:39;;;;;;;34.00;27.30;;;;;;;4.24;100.00;99795.20;108904;1284;22055;-89
2023/11/21 05:37:54;;;;;;;33.60;26.90;;;;;;;4.20;100.00;99796.33;108945;1280;22251;-86
2023/11/21 05:40:43;;;;;;;38.20;32.00;;;;;;;4.19;100.00;99797.02;108937;1280;23638;-85
2023/11/21 05:44:42;;;;;;;29.50;25.00;;;;;;;4.19;100.00;99801.69;109454;1272;21976;-84
2023/11/21 05:47:26;;;;;;;34.80;26.90;;;;;;;4.09;100.00;99810.14;110449;1267;22037;-85
2023/11/21 05:50:01;;;;;;;29.40;24.90;;;;;;;4.09;100.00;99815.83;110128;1267;21940;-86
2023/11/21 05:53:07;;;;;;;33.10;26.60;;;;;;;4.06;100.00;99821.56;110937;1260;22183;-85
2023/11/21 05:55:52;;;;;;;31.50;25.80;;;;;;;4.05;100.00;99825.71;110887;1259;23085;-86
2023/11/21 05:58:36;;;;;;;32.90;25.10;;;;;;;4.04;100.00;99832.79;110370;1266;24394;-86
2023/11/21 06:01:51;;;;;;;31.30;26.10;;;;;;;4.00;100.00;99837.36;110340;1266;21936;-87
2023/11/21 06:04:37;;;;;;;32.40;26.40;;;;;;;3.93;100.00;99832.49;110419;1261;22986;-86
2023/11/21 06:08:00;;;;;;;37.40;30.60;;;;;;;3.89;100.00;99836.71;110208;1266;23127;-87
2023/11/21 06:11:17;;;;;;;37.70;28.90;;;;;;;3.83;100.00;99842.31;110286;1266;24300;-87
2023/11/21 06:13:58;;;;;;;30.00;25.40;;;;;;;3.80;100.00;99851.66;109824;1270;23164;-87
2023/11/21 06:16:47;;;;;;;31.10;25.90;;;;;;;3.77;100.00;99857.23;109920;1266;23039;-83
2023/11/21 06:20:08;;;;;;;;;;;;;;;;;;;;;
2023/11/21 06:23:14;;;;;;;32.30;25.50;;;;;;;3.56;100.00;99865.34;110473;1266;21972;-82
2023/11/21 06:25:57;;;;;;;37.00;26.20;;;;;;;3.55;100.00;99869.48;110355;1266;23609;-85
2023/11/21 06:29:56;;;;;;;30.40;26.10;;;;;;;3.61;100.00;99876.62;110667;1266;22482;-85
2023/11/21 06:33:12;;;;;;;29.30;23.20;;;;;;;3.58;100.00;99889.55;110136;1268;23192;-90
2023/11/21 06:36:24;;;;;;;29.40;24.00;;;;;;;3.57;100.00;99892.52;110164;1268;23050;-81
2023/11/21 06:39:01;;;;;;;28.60;23.70;;;;;;;3.60;100.00;99901.75;110046;1268;22019;-87
2023/11/21 06:42:15;;;;;;;29.00;23.90;;;;;;;3.62;100.00;99905.33;110056;1264;22005;-84
2023/11/21 06:45:36;;;;;;;26.20;21.50;;;;;;;3.62;100.00;99909.12;109804;1272;21814;-84
2023/11/21 06:48:37;;;;;;;26.80;21.10;;;;;;;3.52;100.00;99915.27;109305;1276;23055;-85
2023/11/21 06:51:50;;;;;;;21.10;18.40;;;;;;;3.36;100.00;99906.25;109389;1276;21994;-84
2023/11/21 06:55:07;;;;;;;;;;;;;;;;;;;;;
2023/11/21 06:58:26;;;;;;;11.90;10.20;;;;;;;3.35;100.00;99925.70;109357;1276;21970;-84
2023/11/21 07:01:43;;;;;;;13.40;10.60;;;;;;;3.33;100.00;99932.95;109309;1276;23226;-85
2023/11/21 07:04:36;;;;;;;11.60;9.80;;;;;;;3.24;100.00;99924.66;109614;1273;21991;-85
2023/11/21 07:07:55;;;;;;;10.80;8.20;;;;;;;3.24;100.00;99940.14;110064;1270;21998;-84
2023/11/21 07:10:47;;;;;;;9.20;8.10;;;;;;;3.20;100.00;99942.61;110664;1266;21986;-84
2023/11/21 07:13:41;;;;;;;9.60;8.40;;;;;;;3.17;100.00;99945.73;110564;1266;22683;-84
2023/11/21 07:16:37;;;;;;;9.20;7.90;;;;;;;3.14;100.00;99948.71;110482;1266;21949;-83
2023/11/21 07:19:26;;;;;;;8.80;7.20;;;;;;;3.11;100.00;99953.21;110492;1265;21998;-83
2023/11/21 07:22:25;;;;;;;22.70;13.10;;;;;;;3.07;100.00;99957.91;110553;1266;21998;-84
2023/11/21 07:25:35;;;;;;;27.00;14.20;;;;;;;3.02;100.00;99955.74;110539;1266;23495;-85
2023/11/21 07:28:06;;;;;;;13.60;9.30;;;;;;;2.99;100.00;99958.02;110608;1267;22186;-84
2023/11/21 07:30:46;;;;;;;11.40;10.10;;;;;;;2.94;100.00;99962.72;110637;1265;23798;-85
2023/11/21 07:37:06;;;;;;;8.10;6.80;;;;;;;2.83;100.00;99970.25;110679;1265;21998;-85
2023/11/21 07:39:48;;;;;;;7.60;6.20;;;;;;;2.73;100.00;99970.90;110716;1261;23631;-86
2023/11/21 07:42:29;;;;;;;8.00;6.70;;;;;;;2.69;100.00;99970.08;110853;1261;23618;-85
2023/11/21 07:45:21;;;;;;;8.90;6.90;;;;;;;2.69;100.00;99974.89;110370;1267;21987;-85
2023/11/21 07:48:41;;;;;;;;;;;;;;;;;;;;;
2023/11/21 07:51:35;;;;;;;10.90;8.30;;;;;;;2.64;100.00;99975.96;109586;1274;21967;-84
2023/11/21 07:54:24;;;;;;;7.20;6.40;;;;;;;2.64;100.00;99982.33;109429;1274;22336;-83
2023/11/21 07:57:11;;;;;;;8.20;7.40;;;;;;;2.62;100.00;99984.40;104539;1275;6396633;-85
2023/11/21 08:00:29;;;;;;;7.50;6.80;;;;;;;2.53;100.00;99987.42;109389;1275;21983;-84
2023/11/21 08:03:32;;;;;;;9.70;8.70;;;;;;;2.45;100.00;99988.02;109860;1269;22144;-85
2023/11/21 08:06:41;;;;;;;9.50;8.10;;;;;;;2.41;100.00;99988.76;110366;1261;23725;-84
2023/11/21 08:10:04;;;;;;;;;;;;;;;;;;;;;
2023/11/21 08:15:01;;;;;;;;;;;;;;;;;;;;;
2023/11/21 08:18:24;;;;;;;;;;;;;;;;;;;;;
2023/11/21 08:21:28;;;;;;;13.50;11.30;;;;;;;2.42;100.00;100000.09;109132;1280;22283;-81
2023/11/21 08:25:21;;;;;;;13.50;10.90;;;;;;;2.50;100.00;99997.60;109080;1280;22863;-81
2023/11/21 08:29:06;;;;;;;10.70;9.70;;;;;;;2.53;100.00;100003.58;108334;1292;23125;-81
2023/11/21 08:32:26;;;;;;;12.50;10.90;;;;;;;2.47;100.00;100005.19;108731;1281;22007;-83
2023/11/21 08:36:31;;;;;;;13.90;12.60;;;;;;;2.42;100.00;100012.11;108780;1283;22481;-85
2023/11/21 08:41:01;;;;;;;;;;;;;;;;;;;;;
2023/11/21 08:43:55;;;;;;;10.90;9.80;;;;;;;2.31;100.00;100032.81;107955;1297;22101;-85
2023/11/21 08:46:30;;;;;;;8.80;7.90;;;;;;;2.32;100.00;100033.32;107805;1297;22018;-84
2023/11/21 08:49:35;;;;;;;10.30;9.30;;;;;;;2.21;100.00;100023.11;108356;1291;22003;-84
2023/11/21 08:52:18;;;;;;;13.70;12.00;;;;;;;2.24;100.00;100032.36;108169;1288;22002;-82
2023/11/21 08:55:07;;;;;;;13.70;10.30;;;;;;;2.23;100.00;100033.92;108438;1288;23783;-82
2023/11/21 08:58:15;;;;;;;11.60;10.50;;;;;;;2.23;100.00;100038.73;108722;1281;22017;-83
2023/11/21 09:01:07;;;;;;;15.20;11.40;;;;;;;2.18;100.00;100042.73;108467;1288;22098;-83
2023/11/21 09:04:50;;;;;;;;;;;;;;;;;;;;;
2023/11/21 09:08:15;;;;;;;13.40;12.10;;;;;;;2.16;100.00;100046.52;108458;1290;22006;-82
2023/11/21 09:11:16;;;;;;;14.40;13.00;;;;;;;2.14;100.00;100050.13;108196;1292;22020;-82
2023/11/21 09:14:25;;;;;;;13.50;11.10;;;;;;;2.16;100.00;100052.70;108039;1292;23638;-83
2023/11/21 09:17:29;;;;;;;16.40;13.00;;;;;;;2.29;100.00;100053.61;107887;1291;544117;-80
2023/11/21 09:20:11;;;;;;;12.40;11.10;;;;;;;2.26;100.00;100052.79;109483;1273;22106;-79
2023/11/21 09:22:52;;;;;;;12.80;10.40;;;;;;;2.26;100.00;100054.16;109785;1273;21985;-82
2023/11/21 09:25:56;;;;;;;15.40;11.70;;;;;;;2.22;100.00;100058.83;109491;1273;21995;-84
2023/11/21 09:28:47;;;;;;;12.60;11.40;;;;;;;2.23;100.00;100059.67;109385;1273;22048;-83
2023/11/21 09:32:18;;;;;;;15.70;11.10;;;;;;;2.22;100.00;100060.38;105160;1276;5509882;-84
2023/11/21 09:35:22;;;;;;;11.20;10.10;;;;;;;2.12;100.00;100052.20;109249;1276;21998;-80
2023/11/21 09:39:10;;;;;;;11.70;10.50;;;;;;;2.22;100.00;100066.38;109359;1274;22005;-85
2023/11/21 09:42:39;;;;;;;10.70;9.60;;;;;;;2.24;100.00;100067.73;109449;1274;22600;-83
2023/11/21 09:46:04;;;;;;;10.00;9.00;;;;;;;2.26;100.00;100067.20;109451;1273;21995;-83
2023/11/21 09:49:41;;;;;;;10.30;9.20;;;;;;;2.22;100.00;100067.05;109381;1274;21996;-85
2023/11/21 09:53:27;;;;;;;9.80;8.60;;;;;;;2.19;100.00;100068.98;109690;1268;22018;-82
2023/11/21 09:56:40;;;;;;;8.20;7.20;;;;;;;2.14;100.00;100070.21;110546;1260;21936;-80
2023/11/21 09:59:34;;;;;;;8.00;7.20;;;;;;;2.11;100.00;100075.05;110896;1260;24587;-80
2023/11/21 10:02:47;;;;;;;7.20;6.50;;;;;;;2.10;100.00;100076.43;110945;1256;21996;-82
2023/11/21 10:05:40;;;;;;;8.10;6.60;;;;;;;2.03;100.00;100082.16;110935;1259;22268;-86
2023/11/21 10:08:25;;;;;;;8.10;7.30;;;;;;;1.96;100.00;100082.03;110832;1260;22199;-84
2023/11/21 10:11:12;;;;;;;9.50;8.50;;;;;;;1.92;100.00;100088.58;110813;1262;23048;-79
2023/11/21 10:14:09;;;;;;;;;;;;;;;1.96;100.00;100089.24;110816;1262;24425;-89
2023/11/21 10:17:06;;;;;;;24.20;16.70;;;;;;;1.90;100.00;100091.52;110921;1261;22958;-85
2023/11/21 10:24:26;;;;;;;;;;;;;;;;;;;;;
2023/11/21 10:27:51;;;;;;;11.40;10.20;;;;;;;1.94;100.00;100105.38;108890;1290;22022;-90
2023/11/21 10:31:31;;;;;;;;;;;;;;;;;;;;;
2023/11/21 10:34:59;;;;;;;9.30;8.40;;;;;;;1.95;100.00;100109.66;106921;1303;22574;-88
2023/11/21 10:42:07;;;;;;;9.10;7.90;;;;;;;1.96;100.00;100108.45;107365;1299;22023;-87
2023/11/21 10:45:14;;;;;;;2.10;2.00;;;;;;;1.98;100.00;100108.95;106853;1305;22027;-85
2023/11/21 10:48:56;;;;;;;;;;;;;;;;;;;;;
2023/11/21 10:53:13;;;;;;;10.20;9.30;;;;;;;2.16;100.00;100108.15;107942;1294;548184;-89
2023/11/21 10:56:56;;;;;;;10.70;9.70;;;;;;;2.07;100.00;100109.58;110083;1270;22014;-88
2023/11/21 11:00:06;;;;;;;10.50;9.50;;;;;;;2.01;100.00;100114.60;109289;1275;22012;-85
2023/11/21 11:04:37;;;;;;;;;;;;;;;;;;;;;
2023/11/21 11:08:09;;;;;;;11.50;10.40;;;;;;;1.97;100.00;100122.52;104764;1284;21997;-83
2023/11/21 11:12:11;;;;;;;14.50;12.70;;;;;;;1.91;100.00;100126.69;108718;1285;22563;-83
2023/11/21 11:16:31;;;;;;;;;;;;;;;;;;;;;
2023/11/21 11:24:14;;;;;;;;;;;;;;;;;;;;;
2023/11/21 11:28:02;;;;;;;13.00;11.70;;;;;;;1.79;100.00;100124.18;107510;1298;22049;-84
2023/11/21 11:31:56;;;;;;;;;;;;;;;;;;;;;
2023/11/21 11:50:43;;;;;;;10.90;9.80;;;;;;;3.23;100.00;100147.48;110662;1256;547938;-85
2023/11/21 11:53:45;;;;;;;11.90;10.70;;;;;;;3.09;100.00;100154.70;108176;1245;23617;-85
2023/11/21 11:56:35;;;;;;;13.40;10.90;;;;;;;2.57;100.00;100153.16;112169;1245;21972;-84
2023/11/21 12:00:20;;;;;;;;;;;;;;;;;;;;;
2023/11/21 12:03:43;;;;;;;14.00;12.70;;;;;;;2.04;100.00;100158.53;111737;1251;21983;-86
2023/11/21 12:07:02;;;;;;;14.90;13.40;;;;;;;1.90;100.00;100148.30;111530;1254;23146;-85
2023/11/21 12:09:39;;;;;;;16.50;14.90;;;;;;;1.85;100.00;100160.86;111565;1254;21976;-82
2023/11/21 12:12:33;;;;;;;15.70;14.30;;;;;;;1.77;100.00;100165.02;111319;1254;22051;-85
2023/11/21 12:15:22;;;;;;;16.70;14.60;;;;;;;1.71;100.00;100168.83;111357;1254;24335;-85
2023/11/21 12:18:13;;;;;;;17.60;15.90;;;;;;;1.67;100.00;100171.23;111212;1254;21984;-84
2023/11/21 12:20:55;;;;;;;20.20;17.90;;;;;;;1.61;100.00;100166.62;111401;1254;23059;-83
2023/11/21 12:23:50;;;;;;;18.20;16.30;;;;;;;1.55;100.00;100173.86;111226;1250;22023;-82
2023/11/21 12:27:03;;;;;;;;;;;;;;;;;;;;;
2023/11/21 12:29:54;;;;;;;20.20;18.10;;;;;;;1.40;100.00;100184.71;112331;1244;21957;-83
2023/11/21 12:33:17;;;;;;;18.70;16.80;;;;;;;1.36;100.00;100188.33;112337;1244;21978;-83
2023/11/21 12:36:52;;;;;;;18.90;16.90;;;;;;;1.37;100.00;100190.21;112825;1239;23005;-81
2023/11/21 12:39:54;;;;;;;16.50;14.90;;;;;;;1.38;100.00;100193.11;112249;1245;24152;-82
2023/11/21 12:43:04;;;;;;;18.20;16.40;;;;;;;1.32;100.00;100199.83;111889;1250;21970;-85
2023/11/21 12:46:17;;;;;;;19.00;17.10;;;;;;;1.31;100.00;100205.31;111683;1250;22373;-84
2023/11/21 12:49:34;;;;;;;16.80;15.10;;;;;;;1.28;100.00;100208.59;111616;1251;22731;-82
2023/11/21 12:53:18;;;;;;;19.20;17.10;;;;;;;1.24;100.00;100210.14;111248;1256;21979;-83
2023/11/21 12:56:47;;;;;;;20.50;18.30;;;;;;;1.19;100.00;100215.79;111063;1260;21980;-82
2023/11/21 12:59:30;;;;;;;18.20;15.50;;;;;;;1.23;100.00;100223.16;110815;1260;22019;-83
2023/11/21 13:02:37;;;;;;;19.30;17.50;;;;;;;1.12;100.00;100209.29;111081;1259;23044;-85
2023/11/21 13:05:56;;;;;;;18.20;16.30;;;;;;;1.15;100.00;100230.70;110905;1259;21978;-83
2023/11/21 13:09:08;;;;;;;19.90;18.00;;;;;;;1.14;100.00;100238.26;110206;1266;22957;-83
2023/11/21 13:12:09;;;;;;;;;;;;;;;;;;;;;
2023/11/21 13:15:09;;;;;;;22.20;19.90;;;;;;;1.13;100.00;100250.92;109565;1270;21981;-84
2023/11/21 13:18:07;;;;;;;21.40;19.20;;;;;;;1.11;100.00;100257.97;110130;1266;24320;-83
2023/11/21 13:21:12;;;;;;;23.40;21.00;;;;;;;1.09;100.00;100261.05;110491;1262;22061;-82
2023/11/21 13:24:10;;;;;;;23.30;20.90;;;;;;;1.06;100.00;100266.71;110860;1262;21983;-82
2023/11/21 13:26:52;;;;;;;25.40;22.80;;;;;;;1.09;100.00;100271.67;111274;1241;23705;-83
2023/11/21 13:29:43;;;;;;;27.20;23.50;;;;;;;1.05;100.00;100271.33;112198;1244;23708;-83
2023/11/21 13:32:22;;;;;;;24.00;21.40;;;;;;;1.06;100.00;100272.70;112588;1239;22979;-79
2023/11/21 13:35:08;;;;;;;22.20;19.90;;;;;;;1.12;100.00;100274.08;113109;1239;22097;-84
2023/11/21 13:37:51;;;;;;;24.20;21.90;;;;;;;1.16;100.00;100280.93;112964;1239;21961;-86
2023/11/21 13:40:58;;;;;;;25.20;22.50;;;;;;;1.12;100.00;100281.79;113053;1239;21998;-87
2023/11/21 13:44:16;;;;;;;23.80;21.40;;;;;;;1.08;100.00;100284.20;113168;1239;21944;-86
2023/11/21 13:47:10;;;;;;;27.20;22.60;;;;;;;0.94;100.00;100276.31;113788;1233;22554;-88
2023/11/21 13:50:16;;;;;;;28.60;24.70;;;;;;;0.99;100.00;100296.70;113130;1242;21918;-90
2023/11/21 13:53:22;;;;;;;27.30;24.30;;;;;;;0.98;100.00;100298.08;112981;1242;22070;-88
2023/11/21 13:56:08;;;;;;;26.00;23.40;;;;;;;0.89;100.00;100286.77;113136;1243;21921;-87
2023/11/21 13:58:53;;;;;;;27.50;23.20;;;;;;;1.00;100.00;100305.95;112848;1242;22207;-84
2023/11/21 14:05:21;;;;;;;42.00;37.70;;;;;;;1.02;100.00;100307.15;112227;1251;22505;-84
2023/11/21 14:08:05;;;;;;;25.30;22.70;;;;;;;0.94;100.00;100303.05;111794;1254;22735;-88
2023/11/21 14:10:57;;;;;;;28.30;25.10;;;;;;;0.96;100.00;100321.55;111841;1253;23135;-89
2023/11/21 14:13:48;;;;;;;;;;;;;;;;;;;;;
2023/11/21 14:17:16;;;;;;;28.20;23.50;;;;;;;0.85;100.00;100327.70;111752;1254;22184;-86
2023/11/21 14:20:58;;;;;;;28.40;25.20;;;;;;;0.80;100.00;100338.66;112089;1250;21986;-88
2023/11/21 14:24:29;;;;;;;;;;;;;;;;;;;;;
2023/11/21 14:27:44;;;;;;;28.00;24.80;;;;;;;0.77;100.00;100351.84;111939;1250;22431;-86
2023/11/21 14:31:03;;;;;;;24.60;22.00;;;;;;;0.80;100.00;100354.08;112284;1250;24444;-86
2023/11/21 14:34:36;;;;;;;27.40;24.10;;;;;;;0.76;100.00;100361.27;112137;1250;22168;-89
2023/11/21 14:37:09;;;;;;;23.70;21.30;;;;;;;0.73;100.00;100363.65;112001;1250;21982;-84
2023/11/21 14:40:19;;;;;;;27.00;23.10;;;;;;;0.77;100.00;100371.02;112190;1250;21977;-88
2023/11/21 14:43:39;;;;;;;25.90;22.40;;;;;;;0.73;100.00;100369.64;111937;1252;21937;-86
2023/11/21 14:47:05;;;;;;;;;;;;;;;;;;;;;
2023/11/21 14:54:45;;;;;;;23.30;20.90;;;;;;;0.60;100.00;100392.73;110106;1270;22036;-86
2023/11/21 14:57:49;;;;;;;27.00;23.70;;;;;;;0.58;100.00;100394.61;109915;1270;22542;-86
2023/11/21 15:00:44;;;;;;;28.60;24.40;;;;;;;0.59;100.00;100388.95;109931;1270;22042;-84
2023/11/21 15:06:35;;;;;;;30.90;27.70;;;;;;;0.57;100.00;100384.67;109943;1268;21998;-85
2023/11/21 15:09:50;;;;;;;29.90;26.70;;;;;;;0.54;100.00;100387.23;110264;1268;22012;-86
2023/11/21 15:12:57;;;;;;;29.00;25.90;;;;;;;0.53;100.00;100397.50;109914;1268;22001;-85
2023/11/21 15:15:55;;;;;;;32.40;29.20;;;;;;;0.49;100.00;100405.37;110923;1263;22538;-87
2023/11/21 15:27:49;;;;;;;;;;;;;;;;;;;;;